Time;durP1;ratioP1;P1;durP2;ratioP2;P2;SDS_P1;SDS_P2;PMS_P1;PMS_P2;Temp;Humidity;BMP_temperature;BMP_pressure;BME280_temperature;BME280_humidity;BME280_pressure;Samples;Min_cycle;Max_cycle;Signal;HPM_P1;HPM_P2
2021/04/27 00:00:30;;;;;;;3.40;1.10;;;6.60;58.80;;;;;;2072018;28;20033;-84
2021/04/27 00:01:30;;;;;;;2.45;1.00;;;6.60;58.80;;;;;;2080005;28;20031;-83
2021/04/27 00:02:31;;;;;;;2.95;1.42;;;6.60;58.90;;;;;;2073196;28;20041;-84
2021/04/27 00:03:33;;;;;;;3.13;1.25;;;6.60;59.00;;;;;;2069763;28;20034;-83
2021/04/27 00:04:34;;;;;;;3.00;1.10;;;6.60;59.10;;;;;;2082159;28;20022;-84
2021/04/27 00:05:35;;;;;;;2.55;1.20;;;6.60;59.00;;;;;;2090734;28;20041;-83
2021/04/27 00:06:37;;;;;;;2.28;0.95;;;6.50;59.00;;;;;;2082356;28;20065;-82
2021/04/27 00:07:38;;;;;;;2.85;1.10;;;6.60;59.10;;;;;;2101106;28;20017;-83
2021/04/27 00:08:40;;;;;;;2.25;1.00;;;6.50;59.00;;;;;;2074758;28;20026;-84
2021/04/27 00:09:41;;;;;;;2.88;1.27;;;6.60;59.10;;;;;;2071313;28;20022;-84
2021/04/27 00:10:42;;;;;;;3.20;1.10;;;6.50;59.10;;;;;;2071561;28;20033;-84
2021/04/27 00:11:42;;;;;;;2.95;1.10;;;6.50;59.10;;;;;;2072678;28;20030;-84
2021/04/27 00:12:44;;;;;;;2.10;1.10;;;6.50;59.70;;;;;;2083420;28;20566;-82
2021/04/27 00:13:44;;;;;;;3.17;1.27;;;6.50;59.20;;;;;;2089900;28;20010;-82
2021/04/27 00:14:45;;;;;;;2.70;1.15;;;6.50;59.30;;;;;;2088296;28;20076;-83
2021/04/27 00:15:46;;;;;;;3.20;1.10;;;6.50;59.30;;;;;;2081007;28;20586;-82
2021/04/27 00:16:46;;;;;;;2.40;1.30;;;6.50;59.30;;;;;;2066698;28;20013;-83
2021/04/27 00:17:48;;;;;;;2.63;1.30;;;6.50;59.40;;;;;;2069728;28;20046;-83
2021/04/27 00:18:49;;;;;;;3.65;1.30;;;6.50;59.50;;;;;;2076772;28;20026;-84
2021/04/27 00:19:50;;;;;;;2.70;1.17;;;6.50;59.60;;;;;;2081444;28;20029;-82
2021/04/27 00:20:50;;;;;;;3.15;1.15;;;6.40;59.50;;;;;;2080121;28;20017;-83
2021/04/27 00:21:51;;;;;;;3.05;1.50;;;6.40;59.50;;;;;;2072413;28;20022;-84
2021/04/27 00:22:53;;;;;;;4.95;2.10;;;6.50;59.80;;;;;;2077631;28;20021;-83
2021/04/27 00:23:54;;;;;;;3.33;1.42;;;6.40;59.80;;;;;;2071462;28;20072;-83
2021/04/27 00:24:55;;;;;;;2.05;1.08;;;6.40;59.80;;;;;;2080433;28;20025;-83
2021/04/27 00:25:55;;;;;;;3.25;1.58;;;6.40;59.80;;;;;;2079855;28;20044;-83
2021/04/27 00:26:57;;;;;;;3.58;1.50;;;6.40;59.90;;;;;;2072011;28;20030;-84
2021/04/27 00:27:58;;;;;;;5.63;1.95;;;6.40;60.00;;;;;;2077452;28;20160;-84
2021/04/27 00:29:00;;;;;;;3.03;1.40;;;6.40;60.00;;;;;;2081756;28;20018;-83
2021/04/27 00:30:00;;;;;;;3.38;1.30;;;6.30;60.20;;;;;;2070362;28;20072;-84
2021/04/27 00:31:01;;;;;;;4.05;1.48;;;6.30;60.10;;;;;;2072358;28;20112;-83
2021/04/27 00:32:03;;;;;;;2.83;1.33;;;6.30;60.20;;;;;;2064637;28;20154;-83
2021/04/27 00:33:04;;;;;;;2.35;1.30;;;6.30;60.20;;;;;;2072753;28;20018;-84
2021/04/27 00:34:05;;;;;;;3.15;1.30;;;6.30;60.20;;;;;;2082741;28;20029;-83
2021/04/27 00:35:06;;;;;;;4.05;1.80;;;6.30;60.30;;;;;;2087231;28;20021;-83
2021/04/27 00:36:07;;;;;;;3.10;1.50;;;6.30;60.30;;;;;;2089502;28;20032;-83
2021/04/27 00:37:08;;;;;;;2.75;1.35;;;6.30;61.00;;;;;;2077105;28;20029;-81
2021/04/27 00:38:09;;;;;;;3.15;1.48;;;6.30;60.50;;;;;;2085956;28;20029;-82
2021/04/27 00:39:09;;;;;;;2.45;1.27;;;6.20;60.40;;;;;;2084792;28;20033;-84
2021/04/27 00:40:14;;;;;;;3.45;1.50;;;6.20;60.30;;;;;;2072009;28;20022;-84
2021/04/27 00:41:14;;;;;;;2.50;1.20;;;6.20;60.30;;;;;;2078611;28;20407;-84
2021/04/27 00:42:15;;;;;;;4.18;1.40;;;6.20;60.30;;;;;;2085322;28;20153;-84
2021/04/27 00:43:16;;;;;;;5.03;1.67;;;6.30;60.40;;;;;;2081056;28;20029;-83
2021/04/27 00:44:16;;;;;;;3.55;1.52;;;6.30;60.40;;;;;;2071293;28;20042;-83
2021/04/27 00:45:22;;;;;;;3.08;1.45;;;6.20;60.40;;;;;;2062354;28;20062;-83
2021/04/27 00:46:23;;;;;;;2.78;1.20;;;6.20;60.50;;;;;;2065834;28;20453;-83
2021/04/27 00:47:24;;;;;;;2.40;1.33;;;6.20;60.50;;;;;;2078917;28;20033;-83
2021/04/27 00:48:25;;;;;;;3.95;1.52;;;6.20;60.50;;;;;;2081378;28;20041;-84
2021/04/27 00:49:25;;;;;;;3.15;1.73;;;6.20;60.70;;;;;;2073096;28;20025;-84
2021/04/27 00:50:37;;;;;;;3.63;1.58;;;6.10;60.70;;;;;;2073661;28;20475;-83
2021/04/27 00:51:38;;;;;;;2.45;1.27;;;6.10;60.70;;;;;;2081317;28;20116;-83
2021/04/27 00:52:39;;;;;;;4.18;1.30;;;6.10;60.70;;;;;;2079335;28;20037;-84
2021/04/27 00:53:40;;;;;;;4.57;1.65;;;6.10;60.80;;;;;;2070665;28;20064;-84
2021/04/27 00:54:41;;;;;;;3.40;1.90;;;6.10;60.90;;;;;;2064528;28;20488;-84
2021/04/27 00:55:41;;;;;;;3.35;1.63;;;6.10;61.00;;;;;;2073427;28;20037;-83
2021/04/27 00:56:42;;;;;;;4.57;1.50;;;6.10;60.90;;;;;;2062410;28;20029;-83
2021/04/27 00:57:43;;;;;;;2.47;1.20;;;6.00;60.90;;;;;;2070131;28;20468;-84
2021/04/27 00:58:44;;;;;;;2.90;1.60;;;6.00;60.90;;;;;;2078191;28;20032;-83
2021/04/27 00:59:45;;;;;;;3.63;1.30;;;6.00;60.90;;;;;;2086681;28;20394;-83
2021/04/27 01:00:46;;;;;;;3.97;1.20;;;6.00;60.90;;;;;;2073216;28;20026;-84
2021/04/27 01:01:47;;;;;;;2.40;1.20;;;6.00;60.90;;;;;;2069202;28;20400;-84
2021/04/27 01:02:48;;;;;;;4.15;1.42;;;6.00;61.00;;;;;;2070824;28;20096;-84
2021/04/27 01:03:48;;;;;;;3.28;1.42;;;6.00;61.00;;;;;;2075498;28;20087;-84
2021/04/27 01:04:49;;;;;;;2.95;1.50;;;6.00;61.70;;;;;;2063575;28;20029;-84
2021/04/27 01:05:49;;;;;;;4.05;1.40;;;6.00;61.10;;;;;;2057764;28;20117;-83
2021/04/27 01:06:50;;;;;;;2.80;1.40;;;6.00;61.20;;;;;;2064924;28;20476;-83
2021/04/27 01:08:17;;;;;;;2.65;1.50;;;6.00;61.20;;;;;;2055534;28;20096;-84
2021/04/27 01:09:26;;;;;;;3.70;1.48;;;5.90;61.20;;;;;;2081121;28;20106;-84
2021/04/27 01:10:54;;;;;;;2.42;1.42;;;5.90;61.20;;;;;;2077203;28;20033;-84
2021/04/27 01:12:20;;;;;;;3.63;1.52;;;5.90;61.10;;;;;;2071921;28;20114;-83
2021/04/27 01:13:24;;;;;;;4.15;1.70;;;5.90;61.10;;;;;;2074839;28;20041;-83
2021/04/27 01:14:35;;;;;;;4.00;1.70;;;5.90;61.10;;;;;;2081423;28;20017;-83
2021/04/27 01:15:37;;;;;;;2.95;1.50;;;5.90;61.20;;;;;;2077689;28;20026;-83
2021/04/27 01:16:54;;;;;;;3.47;1.50;;;5.90;61.20;;;;;;2077854;28;20022;-83
2021/04/27 01:17:57;;;;;;;3.05;1.50;;;5.90;61.40;;;;;;2082454;28;20461;-83
2021/04/27 01:18:58;;;;;;;3.72;1.50;;;5.80;61.30;;;;;;2079236;28;20025;-83
2021/04/27 01:20:09;;;;;;;3.50;1.48;;;5.80;61.40;;;;;;2072617;28;20037;-82
2021/04/27 01:21:11;;;;;;;3.20;1.40;;;5.80;61.40;;;;;;2067604;28;20031;-83
2021/04/27 01:22:20;;;;;;;3.35;1.50;;;5.80;61.40;;;;;;2077406;28;20060;-83
2021/04/27 01:23:45;;;;;;;3.13;1.20;;;5.80;61.30;;;;;;2072739;28;20037;-82
2021/04/27 01:24:53;;;;;;;2.83;1.35;;;5.80;61.40;;;;;;2077217;28;20030;-83
2021/04/27 01:26:19;;;;;;;1.98;1.00;;;5.80;61.40;;;;;;2078628;28;20500;-83
2021/04/27 01:27:20;;;;;;;3.58;1.40;;;5.80;61.40;;;;;;2080164;28;20037;-82
2021/04/27 01:28:24;;;;;;;2.67;1.33;;;5.80;61.30;;;;;;2072802;28;20404;-82
2021/04/27 01:29:28;;;;;;;2.80;1.27;;;5.80;61.30;;;;;;2077875;28;20025;-83
2021/04/27 01:30:37;;;;;;;2.10;1.20;;;5.80;61.40;;;;;;2067213;28;20469;-83
2021/04/27 01:31:39;;;;;;;2.72;1.30;;;5.80;61.40;;;;;;2077482;28;20025;-83
2021/04/27 01:32:39;;;;;;;2.75;1.20;;;5.80;61.40;;;;;;2079383;28;20025;-83
2021/04/27 01:33:41;;;;;;;3.70;1.33;;;5.80;61.50;;;;;;2063195;28;20073;-83
2021/04/27 01:34:45;;;;;;;2.20;1.25;;;5.80;61.50;;;;;;2058124;28;20019;-84
2021/04/27 01:35:47;;;;;;;3.97;1.52;;;5.80;62.20;;;;;;2062167;28;20538;-84
2021/04/27 01:36:48;;;;;;;2.75;1.27;;;5.80;61.60;;;;;;2078128;28;20519;-83
2021/04/27 01:37:49;;;;;;;2.95;1.40;;;5.80;61.60;;;;;;2087466;28;20021;-83
2021/04/27 01:38:50;;;;;;;3.65;1.30;;;5.70;61.60;;;;;;2088139;28;20079;-83
2021/04/27 01:39:52;;;;;;;2.72;1.40;;;5.70;61.70;;;;;;2073214;28;20022;-84
2021/04/27 01:40:55;;;;;;;2.35;1.30;;;5.80;61.80;;;;;;2070804;28;20577;-83
2021/04/27 01:41:57;;;;;;;4.03;1.52;;;5.70;61.80;;;;;;2074992;28;20026;-83
2021/04/27 01:43:00;;;;;;;2.38;1.40;;;5.70;61.80;;;;;;2065494;28;20401;-83
2021/04/27 01:44:03;;;;;;;2.75;1.30;;;5.70;61.80;;;;;;2065697;28;20125;-83
2021/04/27 01:45:06;;;;;;;3.85;1.40;;;5.70;61.90;;;;;;2069903;28;20170;-84
2021/04/27 01:46:07;;;;;;;2.88;1.50;;;5.70;62.00;;;;;;2078947;28;20495;-84
2021/04/27 01:47:09;;;;;;;3.30;1.50;;;5.70;62.00;;;;;;2072688;28;20511;-84
2021/04/27 01:48:10;;;;;;;2.50;1.40;;;5.70;62.00;;;;;;2065011;28;20535;-84
2021/04/27 01:49:14;;;;;;;2.97;1.55;;;5.70;62.00;;;;;;2070330;28;20027;-82
2021/04/27 01:50:15;;;;;;;3.45;1.33;;;5.70;62.10;;;;;;2073090;28;20030;-84
2021/04/27 01:51:15;;;;;;;3.08;1.40;;;5.60;62.10;;;;;;2063221;28;20489;-84
2021/04/27 01:52:17;;;;;;;2.72;1.50;;;5.60;62.10;;;;;;2065705;28;20053;-84
2021/04/27 01:53:18;;;;;;;3.13;1.67;;;5.70;62.10;;;;;;2072281;28;20542;-83
2021/04/27 01:54:27;;;;;;;2.13;1.30;;;5.70;62.10;;;;;;2077764;28;20111;-84
2021/04/27 01:55:28;;;;;;;3.28;1.60;;;5.70;62.10;;;;;;2080665;28;20028;-84
2021/04/27 01:56:29;;;;;;;3.40;1.50;;;5.70;62.20;;;;;;2064681;28;20384;-83
2021/04/27 01:57:29;;;;;;;3.72;1.48;;;5.60;62.10;;;;;;2056547;28;20030;-83
2021/04/27 01:58:30;;;;;;;2.63;1.40;;;5.70;62.20;;;;;;2048265;28;20619;-83
2021/04/27 01:59:30;;;;;;;4.50;1.30;;;5.60;62.20;;;;;;2064074;28;20149;-83
2021/04/27 02:00:32;;;;;;;2.35;1.52;;;5.60;62.20;;;;;;2064844;28;20034;-84
2021/04/27 02:01:33;;;;;;;3.13;1.30;;;5.60;62.20;;;;;;2060671;28;20481;-83
2021/04/27 02:02:34;;;;;;;2.58;1.40;;;5.60;62.30;;;;;;2065564;28;20400;-84
2021/04/27 02:03:45;;;;;;;4.95;1.70;;;5.60;62.30;;;;;;2075593;28;20050;-83
2021/04/27 02:04:46;;;;;;;3.47;1.33;;;5.60;62.30;;;;;;2073743;28;20415;-83
2021/04/27 02:05:46;;;;;;;4.40;1.95;;;5.60;62.30;;;;;;2067685;28;20065;-84
2021/04/27 02:06:48;;;;;;;3.08;1.58;;;5.60;62.50;;;;;;2062913;28;20026;-83
2021/04/27 02:07:49;;;;;;;2.88;1.33;;;5.60;62.40;;;;;;2069217;28;20485;-84
2021/04/27 02:09:02;;;;;;;3.58;1.50;;;5.60;62.40;;;;;;2069490;28;20025;-84
2021/04/27 02:10:06;;;;;;;4.55;1.70;;;5.60;62.50;;;;;;2080178;28;20081;-84
2021/04/27 02:11:07;;;;;;;2.40;1.58;;;5.50;62.40;;;;;;2088872;28;20028;-84
2021/04/27 02:12:09;;;;;;;3.03;1.52;;;5.50;62.50;;;;;;2061738;28;20057;-83
2021/04/27 02:13:13;;;;;;;3.88;1.85;;;5.50;62.50;;;;;;2061165;28;20074;-83
2021/04/27 02:14:14;;;;;;;3.58;1.65;;;5.50;62.50;;;;;;2066703;28;20350;-83
2021/04/27 02:15:16;;;;;;;3.40;1.60;;;5.50;62.50;;;;;;2080143;28;20132;-83
2021/04/27 02:16:21;;;;;;;3.95;1.55;;;5.50;62.50;;;;;;2063927;28;20030;-83
2021/04/27 02:17:30;;;;;;;2.33;1.50;;;5.50;62.60;;;;;;2065357;28;20507;-83
2021/04/27 02:18:41;;;;;;;3.17;1.55;;;5.50;62.60;;;;;;2072581;28;20022;-82
2021/04/27 02:19:45;;;;;;;2.80;1.55;;;5.50;62.60;;;;;;2078786;28;20055;-82
2021/04/27 02:20:46;;;;;;;2.40;1.48;;;5.50;62.50;;;;;;2071788;28;20105;-84
2021/04/27 02:21:47;;;;;;;3.22;1.40;;;5.50;62.50;;;;;;2076533;28;20026;-84
2021/04/27 02:22:49;;;;;;;2.97;1.58;;;5.50;62.60;;;;;;2066812;28;20109;-83
2021/04/27 02:23:51;;;;;;;3.88;1.73;;;5.50;62.60;;;;;;2070475;28;20481;-84
2021/04/27 02:24:53;;;;;;;3.63;1.77;;;5.50;62.70;;;;;;2077680;28;20026;-84
2021/04/27 02:25:54;;;;;;;3.97;1.45;;;5.50;62.60;;;;;;2070911;28;20049;-84
2021/04/27 02:26:56;;;;;;;3.13;1.50;;;5.50;62.70;;;;;;2062508;28;20081;-84
2021/04/27 02:27:58;;;;;;;3.13;1.60;;;5.50;62.70;;;;;;2062699;28;20034;-84
2021/04/27 02:29:00;;;;;;;3.30;1.60;;;5.50;62.70;;;;;;2077265;28;20112;-84
2021/04/27 02:30:07;;;;;;;4.40;1.70;;;5.50;62.70;;;;;;2077622;28;20034;-84
2021/04/27 02:31:09;;;;;;;2.85;1.65;;;5.50;62.70;;;;;;2075675;28;20503;-84
2021/04/27 02:32:10;;;;;;;2.53;1.50;;;5.50;62.70;;;;;;2072023;28;20121;-84
2021/04/27 02:33:13;;;;;;;3.70;1.50;;;5.50;62.70;;;;;;2066519;28;20045;-83
2021/04/27 02:34:18;;;;;;;2.55;1.30;;;5.50;62.70;;;;;;2063104;28;20030;-84
2021/04/27 02:35:20;;;;;;;3.47;1.40;;;5.50;62.70;;;;;;2080941;28;20152;-83
2021/04/27 02:36:21;;;;;;;2.80;1.48;;;5.50;62.70;;;;;;2085694;28;20056;-83
2021/04/27 02:37:22;;;;;;;2.22;1.48;;;5.50;62.70;;;;;;2067702;28;20037;-83
2021/04/27 02:38:23;;;;;;;2.85;1.65;;;5.50;62.70;;;;;;2072206;28;20077;-83
2021/04/27 02:39:24;;;;;;;2.75;1.30;;;5.60;62.80;;;;;;2065490;28;20034;-84
2021/04/27 02:40:27;;;;;;;3.22;1.50;;;5.50;62.70;;;;;;2072604;28;20034;-84
2021/04/27 02:41:31;;;;;;;2.40;1.20;;;5.50;62.70;;;;;;2081231;28;20064;-83
2021/04/27 02:42:37;;;;;;;3.55;1.40;;;5.50;62.70;;;;;;2078324;28;20032;-84
2021/04/27 02:43:39;;;;;;;2.30;1.42;;;5.50;62.70;;;;;;2081065;28;20060;-84
2021/04/27 02:44:40;;;;;;;2.78;1.50;;;5.50;62.60;;;;;;2084252;28;20119;-83
2021/04/27 02:45:41;;;;;;;2.67;1.45;;;5.50;62.60;;;;;;2093385;28;20059;-83
2021/04/27 02:46:43;;;;;;;2.42;1.55;;;5.50;62.60;;;;;;2085236;28;20037;-83
2021/04/27 02:47:44;;;;;;;4.22;1.73;;;5.50;62.70;;;;;;2073654;28;20507;-84
2021/04/27 02:48:47;;;;;;;2.80;1.30;;;5.50;62.70;;;;;;2069716;28;20129;-84
2021/04/27 02:49:48;;;;;;;2.80;1.38;;;5.50;62.70;;;;;;2078353;28;20026;-84
2021/04/27 02:50:52;;;;;;;2.60;1.40;;;5.50;62.70;;;;;;2083311;28;20121;-84
2021/04/27 02:51:53;;;;;;;2.92;1.55;;;5.50;62.70;;;;;;2085697;28;20053;-84
2021/04/27 02:52:53;;;;;;;2.67;1.38;;;5.50;62.70;;;;;;2072318;28;20036;-83
2021/04/27 02:53:54;;;;;;;3.08;1.50;;;5.50;62.80;;;;;;2064339;28;20463;-84
2021/04/27 02:54:55;;;;;;;2.55;1.40;;;5.50;62.80;;;;;;2073916;28;20022;-83
2021/04/27 02:55:55;;;;;;;2.95;1.50;;;5.50;62.90;;;;;;2077953;28;20045;-83
2021/04/27 02:56:56;;;;;;;2.50;1.40;;;5.50;62.90;;;;;;2072123;28;20030;-84
2021/04/27 02:57:57;;;;;;;2.55;1.30;;;5.50;62.90;;;;;;2067293;28;20026;-84
2021/04/27 02:58:58;;;;;;;3.10;1.30;;;5.50;62.90;;;;;;2077460;28;20033;-83
2021/04/27 02:59:58;;;;;;;2.13;1.20;;;5.50;63.00;;;;;;2088717;28;20101;-84
2021/04/27 03:00:59;;;;;;;2.65;1.40;;;5.50;63.00;;;;;;2080285;28;20709;-83
2021/04/27 03:01:59;;;;;;;2.38;1.40;;;5.50;63.00;;;;;;2071680;28;20107;-84
2021/04/27 03:03:00;;;;;;;2.00;1.10;;;5.40;63.00;;;;;;2077489;28;20026;-83
2021/04/27 03:04:02;;;;;;;2.70;1.33;;;5.50;63.00;;;;;;2086611;28;20080;-83
2021/04/27 03:05:03;;;;;;;2.60;1.33;;;5.40;63.00;;;;;;2086598;28;20047;-82
2021/04/27 03:06:05;;;;;;;3.75;1.40;;;5.40;63.00;;;;;;2083885;28;20042;-83
2021/04/27 03:07:06;;;;;;;2.42;1.33;;;5.40;63.00;;;;;;2088148;28;20025;-83
2021/04/27 03:08:07;;;;;;;2.45;1.33;;;5.40;63.00;;;;;;2063932;28;20552;-84
2021/04/27 03:09:08;;;;;;;3.35;1.60;;;5.40;63.10;;;;;;2064959;28;20112;-84
2021/04/27 03:10:09;;;;;;;3.22;1.40;;;5.40;63.10;;;;;;2071269;28;20477;-83
2021/04/27 03:11:10;;;;;;;2.08;1.33;;;5.30;63.10;;;;;;2080188;28;20044;-84
2021/04/27 03:12:11;;;;;;;2.38;1.35;;;5.40;63.20;;;;;;2077097;28;20068;-83
2021/04/27 03:13:12;;;;;;;2.15;1.17;;;5.40;63.20;;;;;;2077408;28;20030;-84
2021/04/27 03:14:12;;;;;;;2.67;1.33;;;5.30;63.10;;;;;;2084409;28;20053;-84
2021/04/27 03:15:14;;;;;;;2.72;1.42;;;5.30;63.20;;;;;;2070916;28;20033;-83
2021/04/27 03:16:15;;;;;;;2.60;1.40;;;5.30;63.20;;;;;;2052535;28;20023;-84
2021/04/27 03:17:16;;;;;;;3.65;1.40;;;5.30;63.30;;;;;;2064438;28;20576;-84
2021/04/27 03:18:16;;;;;;;3.50;1.55;;;5.30;63.30;;;;;;2069656;28;20038;-83
2021/04/27 03:19:17;;;;;;;2.10;1.30;;;5.30;63.30;;;;;;2071296;28;20054;-84
2021/04/27 03:20:18;;;;;;;2.28;1.48;;;5.30;63.30;;;;;;2079938;28;20512;-84
2021/04/27 03:21:18;;;;;;;3.83;1.58;;;5.30;63.40;;;;;;2063570;28;20115;-84
2021/04/27 03:22:19;;;;;;;1.92;1.20;;;5.30;63.40;;;;;;2058021;28;20030;-84
2021/04/27 03:23:22;;;;;;;2.28;1.40;;;5.20;63.40;;;;;;2087814;28;20029;-84
2021/04/27 03:24:22;;;;;;;3.28;1.50;;;5.20;63.40;;;;;;2077113;28;20068;-83
2021/04/27 03:25:23;;;;;;;3.22;1.50;;;5.20;63.40;;;;;;2071495;28;20531;-84
2021/04/27 03:26:24;;;;;;;2.92;1.60;;;5.20;64.10;;;;;;2083474;28;20029;-84
2021/04/27 03:27:25;;;;;;;2.60;1.50;;;5.20;63.50;;;;;;2094977;28;20129;-83
2021/04/27 03:28:26;;;;;;;3.15;1.67;;;5.20;63.50;;;;;;2084527;28;20412;-83
2021/04/27 03:29:26;;;;;;;3.00;1.60;;;5.20;63.50;;;;;;2072194;28;20037;-83
2021/04/27 03:30:29;;;;;;;3.33;1.60;;;5.10;63.50;;;;;;2079672;28;20034;-83
2021/04/27 03:31:30;;;;;;;2.70;1.50;;;5.20;63.60;;;;;;2080143;28;20367;-83
2021/04/27 03:32:30;;;;;;;3.67;1.42;;;5.10;63.50;;;;;;2071147;28;20053;-83
2021/04/27 03:33:31;;;;;;;3.15;1.50;;;5.10;63.60;;;;;;2070165;28;20072;-84
2021/04/27 03:34:32;;;;;;;3.40;1.80;;;5.10;63.60;;;;;;2071419;28;20026;-84
2021/04/27 03:35:32;;;;;;;3.20;1.60;;;5.10;63.60;;;;;;2063869;28;20057;-84
2021/04/27 03:36:33;;;;;;;3.33;1.70;;;5.10;63.70;;;;;;2079985;28;20053;-84
2021/04/27 03:37:34;;;;;;;2.78;1.77;;;5.10;63.60;;;;;;2077917;28;20055;-84
2021/04/27 03:38:34;;;;;;;3.38;1.80;;;5.10;63.70;;;;;;2078790;28;20033;-84
2021/04/27 03:39:35;;;;;;;3.55;1.80;;;5.10;63.60;;;;;;2082164;28;20116;-84
2021/04/27 03:40:36;;;;;;;3.38;1.60;;;5.10;63.70;;;;;;2064136;28;20121;-83
2021/04/27 03:41:37;;;;;;;4.25;1.60;;;5.10;63.70;;;;;;2066887;28;20385;-84
2021/04/27 03:42:38;;;;;;;3.13;1.70;;;5.10;63.70;;;;;;2083382;28;20064;-84
2021/04/27 03:43:38;;;;;;;3.22;1.58;;;5.10;63.70;;;;;;2068210;28;20507;-83
2021/04/27 03:44:39;;;;;;;3.15;1.70;;;5.10;63.70;;;;;;2070498;28;20064;-83
2021/04/27 03:45:40;;;;;;;3.17;1.60;;;5.10;63.80;;;;;;2073408;28;20056;-83
2021/04/27 03:46:40;;;;;;;2.58;1.60;;;5.00;63.70;;;;;;2085921;28;20148;-83
2021/04/27 03:47:42;;;;;;;2.97;1.63;;;5.10;63.80;;;;;;2084101;28;20053;-83
2021/04/27 03:48:43;;;;;;;2.70;1.70;;;5.10;63.80;;;;;;2073825;28;20054;-83
2021/04/27 03:49:43;;;;;;;4.00;1.67;;;5.10;63.80;;;;;;2086613;28;20228;-83
2021/04/27 03:50:45;;;;;;;3.45;1.38;;;5.00;63.80;;;;;;2092926;28;20078;-83
2021/04/27 03:51:46;;;;;;;2.78;1.60;;;5.10;63.80;;;;;;2080460;28;20069;-83
2021/04/27 03:52:47;;;;;;;2.75;1.40;;;5.10;63.80;;;;;;2063115;28;20026;-84
2021/04/27 03:53:47;;;;;;;3.80;1.52;;;5.10;63.80;;;;;;2080992;28;20089;-84
2021/04/27 03:54:48;;;;;;;2.92;1.50;;;5.10;63.80;;;;;;2087436;28;20033;-84
2021/04/27 03:55:49;;;;;;;2.88;1.63;;;5.10;63.80;;;;;;2079247;28;20033;-84
2021/04/27 03:56:50;;;;;;;3.20;1.48;;;5.00;63.80;;;;;;2071835;28;20400;-84
2021/04/27 03:57:51;;;;;;;3.05;1.60;;;5.00;63.80;;;;;;2076694;28;20033;-84
2021/04/27 03:58:52;;;;;;;3.70;1.67;;;5.00;63.90;;;;;;2076805;28;20017;-84
2021/04/27 03:59:52;;;;;;;2.95;1.60;;;5.00;63.90;;;;;;2068748;28;20029;-83
2021/04/27 04:00:53;;;;;;;3.05;1.65;;;5.00;63.90;;;;;;2080843;28;20460;-84
2021/04/27 04:01:54;;;;;;;2.42;1.50;;;5.00;63.90;;;;;;2064764;28;20031;-83
2021/04/27 04:02:54;;;;;;;3.00;1.75;;;5.00;63.90;;;;;;2063905;28;20141;-83
2021/04/27 04:03:55;;;;;;;3.55;1.67;;;5.00;63.90;;;;;;2062952;28;20065;-84
2021/04/27 04:04:55;;;;;;;2.92;1.60;;;5.00;64.00;;;;;;2079444;28;20044;-83
2021/04/27 04:05:56;;;;;;;2.38;1.52;;;5.00;63.90;;;;;;2077840;28;20053;-83
2021/04/27 04:06:57;;;;;;;4.38;1.77;;;5.00;64.00;;;;;;2066568;28;20462;-84
2021/04/27 04:07:58;;;;;;;3.00;1.73;;;5.00;64.00;;;;;;2074611;28;20064;-83
2021/04/27 04:08:59;;;;;;;4.32;2.08;;;4.90;63.90;;;;;;2071271;28;20021;-84
2021/04/27 04:10:00;;;;;;;3.20;1.65;;;4.90;64.60;;;;;;2087439;28;20071;-84
2021/04/27 04:11:01;;;;;;;3.10;1.70;;;4.90;64.00;;;;;;2077478;28;20550;-84
2021/04/27 04:12:01;;;;;;;3.17;1.70;;;4.90;64.10;;;;;;2079324;28;20057;-84
2021/04/27 04:13:02;;;;;;;2.85;1.60;;;4.90;64.10;;;;;;2085905;28;20024;-85
2021/04/27 04:14:04;;;;;;;4.95;1.83;;;4.90;64.10;;;;;;2074754;28;20393;-83
2021/04/27 04:15:08;;;;;;;3.38;1.40;;;4.90;64.80;;;;;;2068868;28;20539;-83
2021/04/27 04:16:09;;;;;;;2.90;1.75;;;4.90;64.10;;;;;;2077203;28;20053;-83
2021/04/27 04:17:10;;;;;;;3.63;1.85;;;4.90;64.10;;;;;;2068202;28;20034;-83
2021/04/27 04:18:10;;;;;;;4.18;1.85;;;4.90;64.10;;;;;;2062556;28;20069;-84
2021/04/27 04:19:11;;;;;;;4.22;2.03;;;4.90;64.10;;;;;;2072007;28;20046;-83
2021/04/27 04:20:13;;;;;;;4.70;1.75;;;4.90;64.10;;;;;;2071796;28;20145;-83
2021/04/27 04:21:14;;;;;;;4.35;1.60;;;4.90;64.10;;;;;;2084793;28;20033;-83
2021/04/27 04:22:15;;;;;;;2.50;1.50;;;4.90;64.10;;;;;;2089054;28;20033;-83
2021/04/27 04:23:16;;;;;;;3.50;1.65;;;4.80;64.10;;;;;;2079690;28;20029;-83
2021/04/27 04:24:17;;;;;;;3.00;1.70;;;4.90;64.10;;;;;;2085517;28;20033;-83
2021/04/27 04:25:18;;;;;;;3.05;1.70;;;4.80;64.20;;;;;;2087682;28;20010;-84
2021/04/27 04:26:19;;;;;;;3.05;1.73;;;4.80;64.20;;;;;;2079719;28;20025;-83
2021/04/27 04:27:20;;;;;;;4.22;1.77;;;4.80;64.20;;;;;;2085814;28;20045;-83
2021/04/27 04:28:21;;;;;;;3.92;1.60;;;4.80;64.20;;;;;;2078526;28;20073;-83
2021/04/27 04:29:24;;;;;;;2.72;1.52;;;4.80;64.20;;;;;;2088130;28;20031;-84
2021/04/27 04:30:25;;;;;;;3.22;1.70;;;4.90;64.20;;;;;;2078938;28;20037;-83
2021/04/27 04:31:26;;;;;;;3.75;1.77;;;4.80;64.10;;;;;;2075587;28;20034;-83
2021/04/27 04:32:26;;;;;;;2.88;1.85;;;4.90;64.20;;;;;;2097020;28;20036;-83
2021/04/27 04:33:28;;;;;;;2.85;1.58;;;4.80;64.80;;;;;;2088680;28;20051;-83
2021/04/27 04:34:28;;;;;;;4.00;2.00;;;4.80;64.20;;;;;;2080946;28;20010;-83
2021/04/27 04:35:31;;;;;;;2.80;1.50;;;4.80;64.20;;;;;;2092579;28;20055;-82
2021/04/27 04:36:31;;;;;;;2.90;1.77;;;4.80;64.20;;;;;;2091809;28;20029;-83
2021/04/27 04:37:32;;;;;;;4.10;2.05;;;4.90;64.20;;;;;;2082898;28;20025;-82
2021/04/27 04:38:33;;;;;;;2.83;1.60;;;4.90;64.20;;;;;;2076175;28;20361;-83
2021/04/27 04:39:35;;;;;;;3.20;1.95;;;4.90;64.10;;;;;;2086584;28;20025;-83
2021/04/27 04:40:35;;;;;;;4.18;1.80;;;4.90;64.10;;;;;;2089165;28;20032;-83
2021/04/27 04:41:36;;;;;;;2.70;1.80;;;4.90;64.10;;;;;;2073930;28;20044;-83
2021/04/27 04:42:37;;;;;;;3.70;2.33;;;4.90;64.10;;;;;;2072899;28;20025;-83
2021/04/27 04:43:38;;;;;;;5.22;2.08;;;4.90;64.00;;;;;;2081506;28;20056;-83
2021/04/27 04:44:39;;;;;;;2.92;1.70;;;4.90;63.90;;;;;;2083864;28;20127;-84
2021/04/27 04:45:39;;;;;;;2.88;1.70;;;5.00;63.90;;;;;;2075756;28;20034;-83
2021/04/27 04:46:40;;;;;;;2.60;1.60;;;5.00;63.90;;;;;;2081136;28;20570;-83
2021/04/27 04:47:41;;;;;;;3.88;1.90;;;5.00;63.90;;;;;;2089847;28;20039;-83
2021/04/27 04:48:42;;;;;;;4.32;1.65;;;5.00;63.80;;;;;;2084534;28;20029;-83
2021/04/27 04:49:43;;;;;;;3.90;2.08;;;5.00;63.80;;;;;;2073590;28;20030;-83
2021/04/27 04:50:43;;;;;;;3.33;1.85;;;5.00;63.70;;;;;;2077040;28;20097;-84
2021/04/27 04:51:44;;;;;;;2.95;1.77;;;5.00;63.70;;;;;;2067032;28;20084;-83
2021/04/27 04:52:45;;;;;;;4.13;2.15;;;5.10;63.70;;;;;;2072933;28;20037;-83
2021/04/27 04:53:45;;;;;;;2.83;1.70;;;5.10;63.80;;;;;;2076653;28;20042;-83
2021/04/27 04:54:46;;;;;;;3.45;2.00;;;5.00;63.70;;;;;;2086156;28;20089;-83
2021/04/27 04:55:46;;;;;;;4.03;2.10;;;5.00;63.70;;;;;;2073584;28;20014;-82
2021/04/27 04:56:48;;;;;;;3.75;2.20;;;5.10;63.80;;;;;;2084042;28;20010;-82
2021/04/27 04:57:49;;;;;;;5.03;2.10;;;5.10;63.70;;;;;;2094963;28;20108;-84
2021/04/27 04:58:49;;;;;;;4.28;2.25;;;5.10;63.70;;;;;;2084586;28;20037;-84
2021/04/27 04:59:50;;;;;;;3.72;2.35;;;5.10;63.70;;;;;;2073126;28;20036;-83
2021/04/27 05:00:51;;;;;;;3.47;2.17;;;5.10;63.70;;;;;;2062319;28;20026;-83
2021/04/27 05:01:51;;;;;;;3.38;1.80;;;5.10;63.70;;;;;;2076365;28;20017;-83
2021/04/27 05:02:52;;;;;;;4.88;2.38;;;5.10;63.70;;;;;;2084403;28;20041;-83
2021/04/27 05:03:53;;;;;;;3.65;2.20;;;5.10;63.70;;;;;;2067622;28;20528;-83
2021/04/27 05:04:53;;;;;;;4.80;2.10;;;5.10;63.70;;;;;;2072672;28;20026;-83
2021/04/27 05:05:54;;;;;;;3.45;1.90;;;5.10;63.70;;;;;;2065200;28;20035;-83
2021/04/27 05:06:59;;;;;;;3.30;2.00;;;5.20;63.60;;;;;;2073250;28;20551;-83
2021/04/27 05:08:12;;;;;;;3.83;2.15;;;5.20;63.60;;;;;;2073112;28;20057;-83
2021/04/27 05:09:13;;;;;;;2.78;1.70;;;5.20;63.60;;;;;;2066954;28;20023;-84
2021/04/27 05:10:16;;;;;;;4.18;2.00;;;5.20;63.50;;;;;;2080266;28;20412;-83
2021/04/27 05:11:16;;;;;;;4.40;2.20;;;5.20;63.50;;;;;;2086441;28;20029;-83
2021/04/27 05:12:17;;;;;;;4.47;2.50;;;5.30;63.50;;;;;;2090585;28;20061;-84
2021/04/27 05:13:18;;;;;;;4.13;2.10;;;5.30;63.40;;;;;;2081203;28;20528;-83
2021/04/27 05:14:19;;;;;;;5.18;2.17;;;5.30;63.40;;;;;;2064430;28;20084;-83
2021/04/27 05:15:20;;;;;;;2.75;1.95;;;5.30;63.30;;;;;;2059787;28;20486;-84
2021/04/27 05:16:20;;;;;;;4.35;2.20;;;5.30;63.60;;;;;;2076368;28;20100;-84
2021/04/27 05:17:21;;;;;;;4.25;2.40;;;5.40;63.20;;;;;;2080033;28;20107;-83
2021/04/27 05:18:22;;;;;;;4.38;2.10;;;5.40;63.10;;;;;;2087978;28;20029;-84
2021/04/27 05:19:22;;;;;;;3.70;2.00;;;5.40;63.10;;;;;;2088639;28;20506;-84
2021/04/27 05:20:24;;;;;;;3.10;2.00;;;5.50;63.00;;;;;;2080403;28;20037;-83
2021/04/27 05:21:25;;;;;;;4.78;2.10;;;5.50;62.90;;;;;;2080756;28;20096;-84
2021/04/27 05:22:26;;;;;;;5.30;2.60;;;5.50;62.90;;;;;;2081779;28;20124;-84
2021/04/27 05:23:27;;;;;;;4.35;2.33;;;5.60;62.90;;;;;;2075942;28;20021;-83
2021/04/27 05:24:29;;;;;;;4.93;2.28;;;5.60;62.80;;;;;;2072050;28;20085;-84
2021/04/27 05:25:31;;;;;;;4.32;2.28;;;5.60;62.70;;;;;;2071826;28;20049;-83
2021/04/27 05:26:32;;;;;;;4.80;2.35;;;5.70;62.70;;;;;;2079520;28;20030;-84
2021/04/27 05:27:33;;;;;;;5.43;2.40;;;5.70;62.70;;;;;;2081163;28;20017;-83